Terminal Aerodrome Forecast
Issued by NWS

Home | Current Version | Previous Version | Text Only | Print | Product List | Glossary On
Versions: 1 2 3 4 5 6 7 8 9 10 11 12 13 14 15 16 17 18 19 20 21 22 23 24 25 26 27 28 29 30 31 32
000
FTUS45 KGJT 270143 AAA
TAFEGE
TAF AMD
KEGE 270143Z 2702/2724 25008KT P6SM VCSH SCT060 OVC100
     FM270400 25003KT P6SM VCSH FEW030 OVC050
      TEMPO 2704/2708 4SM -SN SCT020 OVC030
     FM271200 00000KT P6SM FEW030 BKN050 OVC070
     FM271900 24004KT P6SM VCSH SCT030 BKN050 OVC070
      AMD LTD TO CLD VIS AND WIND 2706/2714=

USA.gov is the U.S. government's official web portal to all federal, state and local government web resources and services.